createdAt,value
2022-10-30T00:00:34.308Z,100430.13
2022-10-30T00:03:03.779Z,100429.47
2022-10-30T00:05:31.712Z,100429.69
2022-10-30T00:08:00.206Z,100430.75
2022-10-30T00:10:28.076Z,100423.06
2022-10-30T00:12:55.738Z,100419.56
2022-10-30T00:15:23.350Z,100412.53
2022-10-30T00:17:50.977Z,100418.53
2022-10-30T00:20:19.994Z,100414.38
2022-10-30T00:22:47.654Z,100412.94
2022-10-30T00:25:15.275Z,100409.19
2022-10-30T00:27:42.820Z,100404.22
2022-10-30T00:30:12.135Z,100411.91
2022-10-30T00:32:39.675Z,100410.44
2022-10-30T00:35:07.862Z,100407.13
2022-10-30T00:37:38.262Z,100407.75
2022-10-30T00:40:07.444Z,100406.09
2022-10-30T00:42:35.102Z,100404.84
2022-10-30T00:45:02.725Z,100407.53
2022-10-30T00:47:35.614Z,100406.91
2022-10-30T00:50:07.721Z,100414.59
2022-10-30T00:52:41.649Z,100409.81
2022-10-30T00:55:14.844Z,100426.59
2022-10-30T00:57:44.914Z,100422.25
2022-10-30T01:00:14.140Z,100411.88
2022-10-30T01:02:45.135Z,100413.72
2022-10-30T01:05:15.806Z,100413.13
2022-10-30T01:07:46.426Z,100414.78
2022-10-30T01:10:15.642Z,100409.00
2022-10-30T01:12:45.376Z,100409.16
2022-10-30T01:15:14.501Z,100399.84
2022-10-30T01:18:01.363Z,100399.88
2022-10-30T01:20:43.755Z,100401.94
2022-10-30T01:23:26.244Z,100403.19
2022-10-30T01:26:06.773Z,100405.06
2022-10-30T01:28:50.808Z,100406.94
2022-10-30T01:31:34.611Z,100395.94
2022-10-30T01:34:14.953Z,100401.31
2022-10-30T01:36:50.740Z,100393.84
2022-10-30T01:39:23.577Z,100404.00
2022-10-30T01:41:51.216Z,100400.47
2022-10-30T01:44:22.381Z,100398.41
2022-10-30T01:47:08.149Z,100387.03
2022-10-30T01:50:05.117Z,100384.94
2022-10-30T01:52:42.968Z,100380.56
2022-10-30T01:55:23.908Z,100386.59
2022-10-30T01:57:58.362Z,100388.88
2022-10-30T02:00:28.098Z,100389.47
2022-10-30T02:02:56.369Z,100387.00
2022-10-30T02:05:31.266Z,100390.50
2022-10-30T02:07:59.078Z,100389.69
2022-10-30T02:10:28.906Z,100392.38
2022-10-30T02:12:56.780Z,100384.91
2022-10-30T02:15:24.514Z,100391.13
2022-10-30T02:17:52.135Z,100386.56
2022-10-30T02:20:21.542Z,100389.28
2022-10-30T02:22:52.973Z,100395.22
2022-10-30T02:25:24.034Z,100392.31
2022-10-30T02:27:51.600Z,100397.16
2022-10-30T02:30:19.308Z,100397.56
2022-10-30T02:32:46.893Z,100397.97
2022-10-30T02:35:14.638Z,100398.63
2022-10-30T02:37:43.498Z,100403.16
2022-10-30T02:40:12.306Z,100400.66
2022-10-30T02:42:39.890Z,100400.28
2022-10-30T02:45:08.531Z,100399.44
2022-10-30T02:47:36.138Z,100401.09
2022-10-30T02:50:03.698Z,100404.00
2022-10-30T02:52:31.345Z,100396.09
2022-10-30T02:55:00.268Z,100395.69
2022-10-30T02:57:27.835Z,100402.53
2022-10-30T02:59:55.447Z,100407.09
2022-10-30T03:02:23.087Z,100405.44
2022-10-30T03:04:53.693Z,100407.53
2022-10-30T03:07:21.224Z,100414.38
2022-10-30T03:09:49.116Z,100411.69
2022-10-30T03:12:18.007Z,100408.38
2022-10-30T03:14:45.575Z,100411.28
2022-10-30T03:17:15.717Z,100405.88
2022-10-30T03:19:43.224Z,100406.91
2022-10-30T03:22:10.932Z,100401.91
2022-10-30T03:24:39.032Z,100394.06
2022-10-30T03:27:07.343Z,100395.28
2022-10-30T03:29:36.232Z,100393.41
2022-10-30T03:32:03.840Z,100398.53
2022-10-30T03:34:31.403Z,100402.25
2022-10-30T03:36:58.948Z,100402.25
2022-10-30T03:39:26.526Z,100406.47
2022-10-30T03:41:54.155Z,100405.22
2022-10-30T03:44:21.724Z,100406.88
2022-10-30T03:46:50.621Z,100407.72
2022-10-30T03:49:18.236Z,100404.34
2022-10-30T03:51:45.813Z,100409.09
2022-10-30T03:54:13.433Z,100408.50
2022-10-30T03:56:43.156Z,100402.69
2022-10-30T03:59:10.734Z,100404.56
2022-10-30T04:01:39.143Z,100403.50
2022-10-30T04:04:08.187Z,100396.22
2022-10-30T04:06:35.772Z,100396.03
2022-10-30T04:09:03.417Z,100397.06
2022-10-30T04:11:31.103Z,100403.88
2022-10-30T04:13:58.700Z,100403.00
2022-10-30T04:16:26.334Z,100402.19
2022-10-30T04:18:53.937Z,100401.34
2022-10-30T04:21:22.814Z,100393.91
2022-10-30T04:23:50.448Z,100400.31
2022-10-30T04:26:20.558Z,100409.22
2022-10-30T04:28:48.866Z,100402.41
2022-10-30T04:31:16.466Z,100404.28
2022-10-30T04:33:44.280Z,100393.09
2022-10-30T04:36:11.896Z,100394.97
2022-10-30T04:38:40.781Z,100398.25
2022-10-30T04:41:08.703Z,100393.06
2022-10-30T04:43:36.340Z,100388.94
2022-10-30T04:46:05.704Z,100379.22
2022-10-30T04:48:34.968Z,100381.09
2022-10-30T04:51:02.571Z,100387.06
2022-10-30T04:53:30.187Z,100390.41
2022-10-30T04:55:59.139Z,100386.25
2022-10-30T04:58:27.013Z,100384.78
2022-10-30T05:00:58.973Z,100390.38
2022-10-30T05:03:29.781Z,100383.97
2022-10-30T05:05:59.261Z,100384.34
2022-10-30T05:08:27.123Z,100385.19
2022-10-30T05:10:54.994Z,100390.38
2022-10-30T05:13:24.114Z,100388.50
2022-10-30T05:15:51.908Z,100383.50
2022-10-30T05:18:20.104Z,100383.34
2022-10-30T05:20:48.192Z,100388.47
2022-10-30T05:23:15.926Z,100387.22
2022-10-30T05:25:43.418Z,100393.25
2022-10-30T05:28:11.862Z,100383.34
2022-10-30T05:30:40.740Z,100382.31
2022-10-30T05:33:11.183Z,100390.53
2022-10-30T05:35:39.738Z,100381.41
2022-10-30T05:38:08.371Z,100380.38
2022-10-30T05:40:36.470Z,100376.03
2022-10-30T05:43:04.544Z,100381.44
2022-10-30T05:45:34.698Z,100381.41
2022-10-30T05:48:05.780Z,100376.22
2022-10-30T05:50:34.049Z,100374.72
2022-10-30T05:53:03.980Z,100376.22
2022-10-30T05:55:32.068Z,100377.25
2022-10-30T05:58:00.619Z,100379.09
2022-10-30T06:00:31.035Z,100384.91
2022-10-30T06:03:03.363Z,100391.31
2022-10-30T06:05:32.680Z,100392.53
2022-10-30T06:08:00.440Z,100396.47
2022-10-30T06:10:28.406Z,100395.84
2022-10-30T06:12:57.600Z,100399.16
2022-10-30T06:15:25.758Z,100403.53
2022-10-30T06:17:53.646Z,100399.19
2022-10-30T06:20:24.489Z,100398.56
2022-10-30T06:22:55.972Z,100404.56
2022-10-30T06:25:23.611Z,100401.88
2022-10-30T06:27:51.888Z,100398.38
2022-10-30T06:30:20.160Z,100400.47
2022-10-30T06:32:47.694Z,100398.22
2022-10-30T06:35:16.421Z,100407.09
2022-10-30T06:37:49.093Z,100409.59
2022-10-30T06:40:17.378Z,100415.81
2022-10-30T06:42:45.717Z,100415.63
2022-10-30T06:45:15.498Z,100427.03
2022-10-30T06:47:43.755Z,100417.94
2022-10-30T06:50:13.782Z,100432.09
2022-10-30T06:52:41.358Z,100434.22
2022-10-30T06:55:11.720Z,100428.00
2022-10-30T06:57:39.390Z,100418.28
2022-10-30T07:00:08.941Z,100431.56
2022-10-30T07:02:36.495Z,100423.06
2022-10-30T07:05:04.213Z,100424.13
2022-10-30T07:07:31.876Z,100423.25
2022-10-30T07:09:59.459Z,100417.38
2022-10-30T07:12:28.465Z,100414.22
2022-10-30T07:14:55.990Z,100426.34
2022-10-30T07:17:23.554Z,100412.31
2022-10-30T07:19:51.049Z,100417.06
2022-10-30T07:22:18.877Z,100428.47
2022-10-30T07:24:46.459Z,100430.19
2022-10-30T07:27:13.996Z,100428.38
2022-10-30T07:29:43.278Z,100429.00
2022-10-30T07:32:12.984Z,100429.19
2022-10-30T07:34:40.575Z,100432.13
2022-10-30T07:37:08.435Z,100444.31
2022-10-30T07:39:37.126Z,100432.81
2022-10-30T07:42:05.179Z,100435.50
2022-10-30T07:44:34.002Z,100438.34
2022-10-30T07:47:02.976Z,100446.22
2022-10-30T07:49:30.517Z,100439.47
2022-10-30T07:51:58.090Z,100451.72
2022-10-30T07:54:25.666Z,100454.31
2022-10-30T07:56:53.298Z,100453.22
2022-10-30T07:59:20.938Z,100440.63
2022-10-30T08:01:49.793Z,100443.81
2022-10-30T08:04:18.922Z,100453.09
2022-10-30T08:06:48.997Z,100446.22
2022-10-30T08:09:16.658Z,100444.19
2022-10-30T08:11:44.180Z,100442.50
2022-10-30T08:14:11.823Z,100442.69
2022-10-30T08:16:39.400Z,100443.00
2022-10-30T08:19:07.031Z,100446.09
2022-10-30T08:21:36.776Z,100443.88
2022-10-30T08:24:06.701Z,100435.25
2022-10-30T08:26:34.278Z,100443.69
2022-10-30T08:29:02.024Z,100443.75
2022-10-30T08:31:29.668Z,100448.81
2022-10-30T08:33:57.297Z,100438.72
2022-10-30T08:36:24.929Z,100447.66
2022-10-30T08:38:53.949Z,100446.91
2022-10-30T08:41:21.573Z,100443.28
2022-10-30T08:43:49.099Z,100444.03
2022-10-30T08:46:16.975Z,100449.94
2022-10-30T08:48:44.612Z,100452.44
2022-10-30T08:51:12.383Z,100455.22
2022-10-30T08:53:40.126Z,100441.69
2022-10-30T08:56:09.719Z,100442.66
2022-10-30T08:58:37.327Z,100449.13
2022-10-30T09:01:04.994Z,100446.09
2022-10-30T09:03:32.757Z,100441.22
2022-10-30T09:06:01.226Z,100433.50
2022-10-30T09:08:29.605Z,100431.88
2022-10-30T09:10:57.619Z,100432.97
2022-10-30T09:13:26.854Z,100430.63
2022-10-30T09:15:54.509Z,100430.63
2022-10-30T09:18:22.048Z,100428.63
2022-10-30T09:20:50.059Z,100429.94
2022-10-30T09:23:17.747Z,100426.28
2022-10-30T09:25:45.383Z,100420.75
2022-10-30T09:28:12.968Z,100427.56
2022-10-30T09:30:41.990Z,100434.53
2022-10-30T09:33:10.618Z,100432.78
2022-10-30T09:35:40.570Z,100424.75
2022-10-30T09:38:08.091Z,100430.06
2022-10-30T09:40:45.784Z,100430.28
2022-10-30T09:43:24.921Z,100434.44
2022-10-30T09:46:06.921Z,100432.41
2022-10-30T09:49:06.287Z,100427.44
2022-10-30T09:51:50.205Z,100420.91
2022-10-30T09:54:28.469Z,100425.06
2022-10-30T09:57:03.410Z,100416.78
2022-10-30T09:59:41.973Z,100413.94
2022-10-30T10:02:20.825Z,100410.66
2022-10-30T10:04:53.252Z,100411.94
2022-10-30T10:07:24.115Z,100413.34
2022-10-30T10:09:56.529Z,100415.31
2022-10-30T10:12:29.381Z,100419.31
2022-10-30T10:14:59.018Z,100409.50
2022-10-30T10:17:34.564Z,100418.22
2022-10-30T10:20:05.600Z,100417.16
2022-10-30T10:22:39.970Z,100408.53
2022-10-30T10:25:12.949Z,100406.66
2022-10-30T10:27:55.628Z,100403.56
2022-10-30T10:30:24.802Z,100409.38
2022-10-30T10:33:25.810Z,100406.84
2022-10-30T10:36:21.107Z,100395.72
2022-10-30T10:39:04.104Z,100406.03
2022-10-30T10:41:51.054Z,100403.81
2022-10-30T10:44:31.561Z,100400.78
2022-10-30T10:47:32.126Z,100387.34
2022-10-30T10:50:18.267Z,100382.16
2022-10-30T10:52:52.511Z,100378.81
2022-10-30T10:55:23.274Z,100375.94
2022-10-30T10:57:54.792Z,100379.41
2022-10-30T11:00:25.730Z,100381.72
2022-10-30T11:03:01.787Z,100372.28
2022-10-30T11:05:36.176Z,100372.75
2022-10-30T11:08:13.566Z,100368.13
2022-10-30T11:10:41.303Z,100366.63
2022-10-30T11:13:15.297Z,100367.34
2022-10-30T11:16:01.985Z,100365.56
2022-10-30T11:18:29.890Z,100357.00
2022-10-30T11:21:05.441Z,100353.31
2022-10-30T11:23:34.826Z,100348.69
2022-10-30T11:26:03.413Z,100353.69
2022-10-30T11:28:44.603Z,100348.28
2022-10-30T11:31:20.232Z,100351.72
2022-10-30T11:33:48.684Z,100348.41
2022-10-30T11:36:19.861Z,100347.19
2022-10-30T11:38:48.757Z,100348.56
2022-10-30T11:41:36.293Z,100339.94
2022-10-30T11:44:04.970Z,100339.97
2022-10-30T11:46:36.630Z,100335.97
2022-10-30T11:49:04.547Z,100336.34
2022-10-30T11:51:40.050Z,100336.44
2022-10-30T11:54:08.849Z,100337.25
2022-10-30T11:56:36.521Z,100327.19
2022-10-30T11:59:05.867Z,100333.13
2022-10-30T12:01:36.869Z,100328.75
2022-10-30T12:04:16.791Z,100316.97
2022-10-30T12:06:45.804Z,100322.69
2022-10-30T12:09:15.819Z,100318.09
2022-10-30T12:11:45.680Z,100318.06
2022-10-30T12:14:19.822Z,100325.69
2022-10-30T12:16:49.627Z,100313.88
2022-10-30T12:19:22.045Z,100310.59
2022-10-30T12:21:53.862Z,100315.84
2022-10-30T12:24:26.207Z,100313.59
2022-10-30T12:26:56.617Z,100317.25
2022-10-30T12:30:02.728Z,100309.63
2022-10-30T12:32:27.103Z,100295.75
2022-10-30T12:35:01.129Z,100300.69
2022-10-30T12:37:36.443Z,100297.41
2022-10-30T12:40:09.408Z,100296.06
2022-10-30T12:42:43.387Z,100303.97
2022-10-30T12:45:17.275Z,100300.16
2022-10-30T12:47:51.711Z,100296.91
2022-10-30T12:50:24.204Z,100295.06
2022-10-30T12:53:01.322Z,100292.06
2022-10-30T12:55:36.032Z,100288.25
2022-10-30T12:58:15.981Z,100287.69
2022-10-30T13:00:52.993Z,100281.41
2022-10-30T13:03:27.141Z,100283.38
2022-10-30T13:05:58.064Z,100276.03
2022-10-30T13:08:33.135Z,100278.69
2022-10-30T13:11:08.271Z,100277.06
2022-10-30T13:13:38.758Z,100271.41
2022-10-30T13:16:13.039Z,100272.00
2022-10-30T13:18:40.764Z,100271.16
2022-10-30T13:21:21.890Z,100274.72
2022-10-30T13:23:56.536Z,100271.09
2022-10-30T13:26:33.014Z,100272.97
2022-10-30T13:29:09.055Z,100279.84
2022-10-30T13:31:47.614Z,100267.34
2022-10-30T13:34:28.018Z,100269.00
2022-10-30T13:37:02.125Z,100266.25
2022-10-30T13:39:35.619Z,100270.31
2022-10-30T13:42:23.028Z,100272.75
2022-10-30T13:45:05.385Z,100276.22
2022-10-30T13:47:39.113Z,100263.06
2022-10-30T13:50:23.697Z,100267.09
2022-10-30T13:52:56.194Z,100264.31
2022-10-30T13:55:29.518Z,100277.69
2022-10-30T13:58:04.081Z,100267.91
2022-10-30T14:00:48.310Z,100272.06
2022-10-30T14:03:28.470Z,100266.88
2022-10-30T14:06:05.683Z,100269.81
2022-10-30T14:08:47.896Z,100264.78
2022-10-30T14:11:16.834Z,100272.03
2022-10-30T14:13:53.860Z,100271.59
2022-10-30T14:17:05.488Z,100271.13
2022-10-30T14:19:33.088Z,100268.00
2022-10-30T14:22:01.194Z,100271.97
2022-10-30T14:24:30.975Z,100262.56
2022-10-30T14:27:12.210Z,100263.78
2022-10-30T14:29:48.666Z,100265.88
2022-10-30T14:32:52.845Z,100260.84
2022-10-30T14:35:40.985Z,100273.59
2022-10-30T14:38:26.695Z,100271.00
2022-10-30T14:41:19.397Z,100279.16
2022-10-30T14:44:00.065Z,100276.13
2022-10-30T14:46:35.468Z,100277.28
2022-10-30T14:49:16.748Z,100279.69
2022-10-30T14:51:52.775Z,100276.00
2022-10-30T14:54:28.623Z,100280.31
2022-10-30T14:56:56.159Z,100279.13
2022-10-30T14:59:33.773Z,100275.50
2022-10-30T15:02:13.228Z,100274.03
2022-10-30T15:04:57.500Z,100273.09
2022-10-30T15:07:34.123Z,100277.97
2022-10-30T15:10:12.640Z,100278.97
2022-10-30T15:13:06.711Z,100282.16
2022-10-30T15:15:36.879Z,100274.25
2022-10-30T15:18:10.537Z,100273.38
2022-10-30T15:20:41.985Z,100281.94
2022-10-30T15:23:13.265Z,100279.63
2022-10-30T15:25:47.651Z,100279.53
2022-10-30T15:28:19.445Z,100285.94
2022-10-30T15:31:02.576Z,100281.97
2022-10-30T15:33:32.559Z,100284.25
2022-10-30T15:36:00.955Z,100281.19
2022-10-30T15:38:28.578Z,100294.66
2022-10-30T15:40:59.081Z,100288.31
2022-10-30T15:43:30.631Z,100292.47
2022-10-30T15:45:58.264Z,100293.91
2022-10-30T15:48:31.096Z,100289.78
2022-10-30T15:51:03.312Z,100294.53
2022-10-30T15:53:39.329Z,100287.84
2022-10-30T15:56:13.595Z,100296.69
2022-10-30T15:58:49.635Z,100293.66
2022-10-30T16:01:26.150Z,100295.41
2022-10-30T16:03:55.782Z,100295.91
2022-10-30T16:06:25.947Z,100297.44
2022-10-30T16:08:56.212Z,100296.25
2022-10-30T16:11:25.342Z,100308.66
2022-10-30T16:13:53.522Z,100305.38
2022-10-30T16:16:33.573Z,100314.44
2022-10-30T16:19:05.560Z,100313.97
2022-10-30T16:21:35.074Z,100310.53
2022-10-30T16:24:05.130Z,100323.03
2022-10-30T16:26:34.824Z,100324.34
2022-10-30T16:29:10.101Z,100315.75
2022-10-30T16:31:38.687Z,100323.16
2022-10-30T16:34:14.340Z,100321.41
2022-10-30T16:36:42.682Z,100316.53
2022-10-30T16:39:15.176Z,100319.72
2022-10-30T16:41:43.929Z,100322.78
2022-10-30T16:44:18.467Z,100329.03
2022-10-30T16:46:52.671Z,100324.75
2022-10-30T16:49:24.401Z,100328.63
2022-10-30T16:51:59.270Z,100330.03
2022-10-30T16:54:31.457Z,100335.56
2022-10-30T16:57:00.887Z,100337.31
2022-10-30T16:59:40.018Z,100341.19
2022-10-30T17:02:16.515Z,100342.34
2022-10-30T17:04:51.315Z,100346.19
2022-10-30T17:07:24.554Z,100352.56
2022-10-30T17:09:55.541Z,100348.03
2022-10-30T17:12:25.050Z,100352.28
2022-10-30T17:14:55.174Z,100347.13
2022-10-30T17:17:28.235Z,100355.09
2022-10-30T17:20:03.255Z,100358.97
2022-10-30T17:22:31.843Z,100349.63
2022-10-30T17:25:00.687Z,100358.19
2022-10-30T17:27:47.058Z,100364.91
2022-10-30T17:30:31.796Z,100375.97
2022-10-30T17:32:59.690Z,100372.25
2022-10-30T17:35:29.021Z,100381.06
2022-10-30T17:37:59.790Z,100378.66
2022-10-30T17:40:30.571Z,100379.09
2022-10-30T17:42:58.175Z,100381.03
2022-10-30T17:45:25.768Z,100372.34
2022-10-30T17:47:53.476Z,100388.16
2022-10-30T17:50:21.015Z,100385.09
2022-10-30T17:52:50.089Z,100389.63
2022-10-30T17:55:30.331Z,100398.16
2022-10-30T17:57:57.892Z,100398.16
2022-10-30T18:00:26.869Z,100397.09
2022-10-30T18:02:54.663Z,100403.78
2022-10-30T18:05:26.313Z,100405.31
2022-10-30T18:07:55.259Z,100409.28
2022-10-30T18:10:26.394Z,100411.00
2022-10-30T18:12:54.025Z,100413.97
2022-10-30T18:15:28.877Z,100418.41
2022-10-30T18:17:56.747Z,100434.03
2022-10-30T18:20:24.937Z,100429.09
2022-10-30T18:22:53.463Z,100441.56
2022-10-30T18:25:24.805Z,100436.38
2022-10-30T18:27:52.676Z,100444.13
2022-10-30T18:30:21.222Z,100443.31
2022-10-30T18:32:49.657Z,100446.25
2022-10-30T18:35:30.164Z,100447.06
2022-10-30T18:37:59.028Z,100437.25
2022-10-30T18:40:29.124Z,100447.00
2022-10-30T18:42:57.370Z,100447.06
2022-10-30T18:45:27.128Z,100448.75
2022-10-30T18:47:57.595Z,100443.63
2022-10-30T18:50:25.578Z,100448.25
2022-10-30T18:52:54.632Z,100451.56
2022-10-30T18:55:24.278Z,100455.53
2022-10-30T18:57:53.785Z,100450.59
2022-10-30T19:00:25.038Z,100450.38
2022-10-30T19:02:53.161Z,100454.78
2022-10-30T19:05:27.561Z,100458.16
2022-10-30T19:07:57.812Z,100458.16
2022-10-30T19:10:26.885Z,100453.56
2022-10-30T19:13:11.910Z,100455.84
2022-10-30T19:15:41.650Z,100456.28
2022-10-30T19:18:09.207Z,100467.75
2022-10-30T19:20:58.862Z,100459.44
2022-10-30T19:23:26.353Z,100461.94
2022-10-30T19:25:54.739Z,100469.84
2022-10-30T19:28:25.621Z,100466.53
2022-10-30T19:30:54.695Z,100470.91
2022-10-30T19:33:24.865Z,100465.72
2022-10-30T19:35:56.435Z,100467.81
2022-10-30T19:38:24.318Z,100467.81
2022-10-30T19:40:53.647Z,100463.25
2022-10-30T19:43:21.464Z,100472.19
2022-10-30T19:45:55.538Z,100468.25
2022-10-30T19:48:48.035Z,100465.78
2022-10-30T19:51:11.843Z,100478.19
2022-10-30T19:53:39.722Z,100472.84
2022-10-30T19:56:09.422Z,100478.88
2022-10-30T19:58:37.113Z,100479.69
2022-10-30T20:01:06.368Z,100490.50
2022-10-30T20:03:34.372Z,100486.53
2022-10-30T20:06:02.306Z,100486.75
2022-10-30T20:08:32.032Z,100485.53
2022-10-30T20:11:00.810Z,100487.16
2022-10-30T20:13:29.275Z,100482.81
2022-10-30T20:15:58.169Z,100484.47
2022-10-30T20:18:30.488Z,100495.25
2022-10-30T20:20:59.618Z,100496.31
2022-10-30T20:23:27.569Z,100498.16
2022-10-30T20:25:58.499Z,100496.72
2022-10-30T20:28:29.152Z,100498.19
2022-10-30T20:30:57.113Z,100500.66
2022-10-30T20:33:26.938Z,100508.31
2022-10-30T20:35:56.012Z,100505.25
2022-10-30T20:38:26.092Z,100511.03
2022-10-30T20:40:54.401Z,100510.59
2022-10-30T20:43:25.973Z,100509.78
2022-10-30T20:45:53.547Z,100513.06
2022-10-30T20:48:21.206Z,100508.94
2022-10-30T20:50:53.820Z,100509.13
2022-10-30T20:53:21.764Z,100517.63
2022-10-30T20:55:49.917Z,100522.81
2022-10-30T20:58:17.487Z,100521.75
2022-10-30T21:00:48.332Z,100523.00
2022-10-30T21:03:16.308Z,100531.50
2022-10-30T21:05:45.872Z,100531.88
2022-10-30T21:08:15.228Z,100534.56
2022-10-30T21:10:43.400Z,100531.25
2022-10-30T21:13:11.959Z,100528.56
2022-10-30T21:15:40.830Z,100535.81
2022-10-30T21:18:08.805Z,100530.22
2022-10-30T21:20:37.542Z,100535.78
2022-10-30T21:23:05.750Z,100529.97
2022-10-30T21:25:34.730Z,100529.56
2022-10-30T21:28:03.043Z,100533.28
2022-10-30T21:30:33.292Z,100533.69
2022-10-30T21:33:04.515Z,100532.63
2022-10-30T21:35:32.385Z,100534.31
2022-10-30T21:38:02.479Z,100533.25
2022-10-30T21:40:30.532Z,100533.66
2022-10-30T21:43:03.055Z,100531.19
2022-10-30T21:45:32.102Z,100541.94
2022-10-30T21:47:59.805Z,100536.28
2022-10-30T21:50:27.499Z,100539.38
2022-10-30T21:52:55.196Z,100533.97
2022-10-30T21:55:23.168Z,100529.41
2022-10-30T21:57:50.758Z,100543.03
2022-10-30T22:00:19.971Z,100526.03
2022-10-30T22:02:47.585Z,100537.00
2022-10-30T22:05:15.173Z,100534.09
2022-10-30T22:07:44.957Z,100538.63
2022-10-30T22:10:12.571Z,100530.94
2022-10-30T22:12:41.019Z,100529.50
2022-10-30T22:15:10.025Z,100533.44
2022-10-30T22:17:39.127Z,100529.91
2022-10-30T22:20:09.816Z,100533.00
2022-10-30T22:22:37.781Z,100519.09
2022-10-30T22:25:06.421Z,100529.38
2022-10-30T22:27:34.066Z,100520.22
2022-10-30T22:30:01.666Z,100521.84
2022-10-30T22:32:29.156Z,100526.75
2022-10-30T22:34:58.810Z,100524.91
2022-10-30T22:37:26.434Z,100523.84
2022-10-30T22:39:54.087Z,100525.22
2022-10-30T22:42:21.775Z,100523.56
2022-10-30T22:44:49.550Z,100526.97
2022-10-30T22:47:18.101Z,100529.16
2022-10-30T22:49:45.854Z,100532.09
2022-10-30T22:52:14.729Z,100526.47
2022-10-30T22:54:42.318Z,100524.59
2022-10-30T22:57:09.940Z,100523.81
2022-10-30T22:59:37.522Z,100529.19
2022-10-30T23:02:05.199Z,100529.00
2022-10-30T23:04:32.909Z,100529.00
2022-10-30T23:07:00.533Z,100537.03
2022-10-30T23:09:29.511Z,100534.47
2022-10-30T23:11:57.135Z,100533.63
2022-10-30T23:14:24.846Z,100538.09
2022-10-30T23:16:52.547Z,100542.00
2022-10-30T23:19:20.137Z,100544.91
2022-10-30T23:21:47.979Z,100547.16
2022-10-30T23:24:15.585Z,100547.59
2022-10-30T23:26:44.593Z,100541.38
2022-10-30T23:29:12.301Z,100542.66
2022-10-30T23:31:42.333Z,100547.16
2022-10-30T23:34:12.130Z,100541.47
2022-10-30T23:36:40.543Z,100544.78
2022-10-30T23:39:11.401Z,100552.03
2022-10-30T23:41:39.118Z,100550.47
2022-10-30T23:44:12.069Z,100546.66
2022-10-30T23:46:39.682Z,100549.84
2022-10-30T23:49:07.719Z,100554.81
2022-10-30T23:51:35.394Z,100551.50
2022-10-30T23:54:03.022Z,100552.22
2022-10-30T23:56:31.167Z,100557.06
2022-10-30T23:58:58.776Z,100561.94
